sensor_id;sensor_type;location;lat;lon;timestamp;P1;durP1;ratioP1;P2;durP2;ratioP2
13985;SDS011;7067;51.832;8.296;2022-10-16T00:01:10;7.57;;;6.88;;
13985;SDS011;7067;51.832;8.296;2022-10-16T00:03:37;6.82;;;6.22;;
13985;SDS011;7067;51.832;8.296;2022-10-16T00:06:04;7.22;;;6.35;;
13985;SDS011;7067;51.832;8.296;2022-10-16T00:08:30;5.88;;;5.40;;
13985;SDS011;7067;51.832;8.296;2022-10-16T00:10:59;7.95;;;6.35;;
13985;SDS011;7067;51.832;8.296;2022-10-16T00:15:50;8.98;;;6.40;;
13985;SDS011;7067;51.832;8.296;2022-10-16T00:18:16;9.18;;;5.90;;
13985;SDS011;7067;51.832;8.296;2022-10-16T00:20:41;6.95;;;5.70;;
13985;SDS011;7067;51.832;8.296;2022-10-16T00:23:07;7.40;;;5.72;;
13985;SDS011;7067;51.832;8.296;2022-10-16T00:25:33;6.72;;;6.13;;
13985;SDS011;7067;51.832;8.296;2022-10-16T00:27:59;7.72;;;6.07;;
13985;SDS011;7067;51.832;8.296;2022-10-16T00:30:25;9.05;;;6.35;;
13985;SDS011;7067;51.832;8.296;2022-10-16T00:32:52;6.78;;;6.25;;
13985;SDS011;7067;51.832;8.296;2022-10-16T00:35:18;7.03;;;6.43;;
13985;SDS011;7067;51.832;8.296;2022-10-16T00:37:43;8.05;;;7.30;;
13985;SDS011;7067;51.832;8.296;2022-10-16T00:40:08;8.10;;;6.82;;
13985;SDS011;7067;51.832;8.296;2022-10-16T00:42:34;7.03;;;6.13;;
13985;SDS011;7067;51.832;8.296;2022-10-16T00:44:59;7.30;;;6.72;;
13985;SDS011;7067;51.832;8.296;2022-10-16T00:47:35;7.65;;;6.70;;
13985;SDS011;7067;51.832;8.296;2022-10-16T00:52:57;9.23;;;6.68;;
13985;SDS011;7067;51.832;8.296;2022-10-16T00:55:23;7.38;;;6.50;;
13985;SDS011;7067;51.832;8.296;2022-10-16T00:57:49;7.30;;;6.60;;
13985;SDS011;7067;51.832;8.296;2022-10-16T01:00:16;7.00;;;6.25;;
13985;SDS011;7067;51.832;8.296;2022-10-16T01:02:43;10.02;;;6.72;;
13985;SDS011;7067;51.832;8.296;2022-10-16T01:05:09;7.97;;;7.30;;
13985;SDS011;7067;51.832;8.296;2022-10-16T01:07:37;8.93;;;6.93;;
13985;SDS011;7067;51.832;8.296;2022-10-16T01:10:19;7.60;;;6.93;;
13985;SDS011;7067;51.832;8.296;2022-10-16T01:13:07;7.72;;;6.97;;
13985;SDS011;7067;51.832;8.296;2022-10-16T01:15:46;8.18;;;7.38;;
13985;SDS011;7067;51.832;8.296;2022-10-16T01:20:59;10.75;;;7.30;;
13985;SDS011;7067;51.832;8.296;2022-10-16T01:29:47;9.35;;;7.60;;
13985;SDS011;7067;51.832;8.296;2022-10-16T01:31:54;8.40;;;7.60;;
13985;SDS011;7067;51.832;8.296;2022-10-16T01:34:25;7.50;;;6.80;;
13985;SDS011;7067;51.832;8.296;2022-10-16T01:37:00;8.35;;;7.40;;
13985;SDS011;7067;51.832;8.296;2022-10-16T01:39:29;13.85;;;7.80;;
13985;SDS011;7067;51.832;8.296;2022-10-16T01:42:01;8.07;;;7.38;;
13985;SDS011;7067;51.832;8.296;2022-10-16T01:44:34;7.38;;;6.70;;
13985;SDS011;7067;51.832;8.296;2022-10-16T01:47:01;7.78;;;7.05;;
13985;SDS011;7067;51.832;8.296;2022-10-16T01:49:28;7.60;;;6.90;;
13985;SDS011;7067;51.832;8.296;2022-10-16T01:51:56;7.55;;;6.70;;
13985;SDS011;7067;51.832;8.296;2022-10-16T01:54:23;9.43;;;7.40;;
13985;SDS011;7067;51.832;8.296;2022-10-16T01:56:52;7.43;;;6.70;;
13985;SDS011;7067;51.832;8.296;2022-10-16T01:59:21;11.18;;;7.22;;
13985;SDS011;7067;51.832;8.296;2022-10-16T02:01:48;7.65;;;6.53;;
13985;SDS011;7067;51.832;8.296;2022-10-16T02:04:33;9.68;;;6.75;;
13985;SDS011;7067;51.832;8.296;2022-10-16T02:07:00;7.05;;;6.32;;
13985;SDS011;7067;51.832;8.296;2022-10-16T02:09:25;9.00;;;5.85;;
13985;SDS011;7067;51.832;8.296;2022-10-16T02:11:52;9.15;;;7.13;;
13985;SDS011;7067;51.832;8.296;2022-10-16T02:14:19;7.90;;;7.20;;
13985;SDS011;7067;51.832;8.296;2022-10-16T02:16:45;13.90;;;6.82;;
13985;SDS011;7067;51.832;8.296;2022-10-16T02:19:12;7.70;;;7.00;;
13985;SDS011;7067;51.832;8.296;2022-10-16T02:21:54;7.13;;;6.18;;
13985;SDS011;7067;51.832;8.296;2022-10-16T02:24:32;6.93;;;6.10;;
13985;SDS011;7067;51.832;8.296;2022-10-16T02:29:40;7.03;;;5.78;;
13985;SDS011;7067;51.832;8.296;2022-10-16T02:32:09;6.40;;;5.97;;
13985;SDS011;7067;51.832;8.296;2022-10-16T02:34:35;7.00;;;6.32;;
13985;SDS011;7067;51.832;8.296;2022-10-16T02:37:01;6.32;;;5.82;;
13985;SDS011;7067;51.832;8.296;2022-10-16T02:39:29;7.63;;;5.35;;
13985;SDS011;7067;51.832;8.296;2022-10-16T02:41:54;7.03;;;6.10;;
13985;SDS011;7067;51.832;8.296;2022-10-16T02:44:20;6.38;;;5.72;;
13985;SDS011;7067;51.832;8.296;2022-10-16T02:46:45;6.97;;;5.43;;
13985;SDS011;7067;51.832;8.296;2022-10-16T02:49:10;5.53;;;5.10;;
13985;SDS011;7067;51.832;8.296;2022-10-16T02:51:36;5.28;;;4.75;;
13985;SDS011;7067;51.832;8.296;2022-10-16T02:54:02;5.63;;;5.13;;
13985;SDS011;7067;51.832;8.296;2022-10-16T02:56:27;8.70;;;6.05;;
13985;SDS011;7067;51.832;8.296;2022-10-16T02:58:54;6.53;;;5.80;;
13985;SDS011;7067;51.832;8.296;2022-10-16T03:01:19;8.40;;;6.00;;
13985;SDS011;7067;51.832;8.296;2022-10-16T03:03:45;9.10;;;7.07;;
13985;SDS011;7067;51.832;8.296;2022-10-16T03:06:10;6.30;;;5.80;;
13985;SDS011;7067;51.832;8.296;2022-10-16T03:08:35;9.27;;;5.78;;
13985;SDS011;7067;51.832;8.296;2022-10-16T03:11:01;8.95;;;6.55;;
13985;SDS011;7067;51.832;8.296;2022-10-16T03:13:26;6.35;;;5.75;;
13985;SDS011;7067;51.832;8.296;2022-10-16T03:15:51;6.60;;;5.78;;
13985;SDS011;7067;51.832;8.296;2022-10-16T03:18:17;6.82;;;6.03;;
13985;SDS011;7067;51.832;8.296;2022-10-16T03:20:42;5.72;;;5.32;;
13985;SDS011;7067;51.832;8.296;2022-10-16T03:23:08;5.60;;;5.18;;
13985;SDS011;7067;51.832;8.296;2022-10-16T03:25:33;7.93;;;5.57;;
13985;SDS011;7067;51.832;8.296;2022-10-16T03:27:59;6.10;;;5.65;;
13985;SDS011;7067;51.832;8.296;2022-10-16T03:30:24;7.15;;;5.38;;
13985;SDS011;7067;51.832;8.296;2022-10-16T03:32:49;6.50;;;4.68;;
13985;SDS011;7067;51.832;8.296;2022-10-16T03:35:18;5.88;;;5.20;;
13985;SDS011;7067;51.832;8.296;2022-10-16T03:37:44;7.15;;;4.50;;
13985;SDS011;7067;51.832;8.296;2022-10-16T03:40:10;4.75;;;4.25;;
13985;SDS011;7067;51.832;8.296;2022-10-16T03:42:35;6.40;;;4.40;;
13985;SDS011;7067;51.832;8.296;2022-10-16T03:45:00;5.63;;;4.20;;
13985;SDS011;7067;51.832;8.296;2022-10-16T03:47:26;7.53;;;4.30;;
13985;SDS011;7067;51.832;8.296;2022-10-16T03:49:51;4.40;;;3.90;;
13985;SDS011;7067;51.832;8.296;2022-10-16T03:52:17;5.05;;;4.45;;
13985;SDS011;7067;51.832;8.296;2022-10-16T03:54:42;5.57;;;4.22;;
13985;SDS011;7067;51.832;8.296;2022-10-16T03:57:08;4.70;;;4.28;;
13985;SDS011;7067;51.832;8.296;2022-10-16T03:59:33;4.63;;;4.22;;
13985;SDS011;7067;51.832;8.296;2022-10-16T04:01:59;5.32;;;3.90;;
13985;SDS011;7067;51.832;8.296;2022-10-16T04:04:24;4.15;;;3.85;;
13985;SDS011;7067;51.832;8.296;2022-10-16T04:06:50;4.65;;;4.25;;
13985;SDS011;7067;51.832;8.296;2022-10-16T04:09:15;5.38;;;3.83;;
13985;SDS011;7067;51.832;8.296;2022-10-16T04:11:40;3.42;;;3.13;;
13985;SDS011;7067;51.832;8.296;2022-10-16T04:14:06;5.38;;;3.03;;
13985;SDS011;7067;51.832;8.296;2022-10-16T04:16:31;5.60;;;3.50;;
13985;SDS011;7067;51.832;8.296;2022-10-16T04:18:56;3.28;;;3.08;;
13985;SDS011;7067;51.832;8.296;2022-10-16T04:21:22;4.28;;;3.15;;
13985;SDS011;7067;51.832;8.296;2022-10-16T04:23:47;4.80;;;3.30;;
13985;SDS011;7067;51.832;8.296;2022-10-16T04:26:13;5.28;;;3.33;;
13985;SDS011;7067;51.832;8.296;2022-10-16T04:28:38;4.57;;;3.28;;
13985;SDS011;7067;51.832;8.296;2022-10-16T04:31:04;3.35;;;3.15;;
13985;SDS011;7067;51.832;8.296;2022-10-16T04:33:30;7.38;;;3.63;;
13985;SDS011;7067;51.832;8.296;2022-10-16T04:35:56;3.40;;;3.10;;
13985;SDS011;7067;51.832;8.296;2022-10-16T04:38:22;3.78;;;2.90;;
13985;SDS011;7067;51.832;8.296;2022-10-16T04:40:48;5.90;;;3.25;;
13985;SDS011;7067;51.832;8.296;2022-10-16T04:43:13;6.07;;;3.22;;
13985;SDS011;7067;51.832;8.296;2022-10-16T04:45:38;3.47;;;3.17;;
13985;SDS011;7067;51.832;8.296;2022-10-16T04:48:04;4.65;;;2.92;;
13985;SDS011;7067;51.832;8.296;2022-10-16T04:50:29;4.60;;;3.20;;
13985;SDS011;7067;51.832;8.296;2022-10-16T04:52:54;2.83;;;2.63;;
13985;SDS011;7067;51.832;8.296;2022-10-16T04:55:20;4.97;;;2.75;;
13985;SDS011;7067;51.832;8.296;2022-10-16T04:57:45;2.65;;;2.45;;
13985;SDS011;7067;51.832;8.296;2022-10-16T05:00:10;3.00;;;2.78;;
13985;SDS011;7067;51.832;8.296;2022-10-16T05:02:36;5.18;;;2.90;;
13985;SDS011;7067;51.832;8.296;2022-10-16T05:05:01;2.70;;;2.50;;
13985;SDS011;7067;51.832;8.296;2022-10-16T05:07:27;2.67;;;2.42;;
13985;SDS011;7067;51.832;8.296;2022-10-16T05:09:52;5.15;;;3.00;;
13985;SDS011;7067;51.832;8.296;2022-10-16T05:12:18;2.67;;;2.50;;
13985;SDS011;7067;51.832;8.296;2022-10-16T05:14:43;5.68;;;2.92;;
13985;SDS011;7067;51.832;8.296;2022-10-16T05:17:08;2.95;;;2.50;;
13985;SDS011;7067;51.832;8.296;2022-10-16T05:19:34;5.95;;;3.00;;
13985;SDS011;7067;51.832;8.296;2022-10-16T05:21:59;2.72;;;2.30;;
13985;SDS011;7067;51.832;8.296;2022-10-16T05:24:24;4.35;;;2.63;;
13985;SDS011;7067;51.832;8.296;2022-10-16T05:26:50;4.45;;;2.58;;
13985;SDS011;7067;51.832;8.296;2022-10-16T05:29:16;4.30;;;2.25;;
13985;SDS011;7067;51.832;8.296;2022-10-16T05:31:41;7.15;;;2.38;;
13985;SDS011;7067;51.832;8.296;2022-10-16T05:34:06;6.10;;;2.03;;
13985;SDS011;7067;51.832;8.296;2022-10-16T05:36:32;3.08;;;2.55;;
13985;SDS011;7067;51.832;8.296;2022-10-16T05:38:57;4.35;;;2.85;;
13985;SDS011;7067;51.832;8.296;2022-10-16T05:41:23;5.05;;;2.80;;
13985;SDS011;7067;51.832;8.296;2022-10-16T05:43:50;7.72;;;3.20;;
13985;SDS011;7067;51.832;8.296;2022-10-16T05:46:16;3.22;;;2.75;;
13985;SDS011;7067;51.832;8.296;2022-10-16T05:48:41;7.45;;;2.97;;
13985;SDS011;7067;51.832;8.296;2022-10-16T05:51:07;5.45;;;3.33;;
13985;SDS011;7067;51.832;8.296;2022-10-16T05:53:35;5.47;;;2.83;;
13985;SDS011;7067;51.832;8.296;2022-10-16T05:56:02;5.78;;;3.33;;
13985;SDS011;7067;51.832;8.296;2022-10-16T05:58:28;8.90;;;3.40;;
13985;SDS011;7067;51.832;8.296;2022-10-16T06:00:55;7.93;;;2.53;;
13985;SDS011;7067;51.832;8.296;2022-10-16T06:03:22;6.28;;;3.22;;
13985;SDS011;7067;51.832;8.296;2022-10-16T06:05:47;4.75;;;2.20;;
13985;SDS011;7067;51.832;8.296;2022-10-16T06:08:13;5.18;;;2.90;;
13985;SDS011;7067;51.832;8.296;2022-10-16T06:10:38;3.40;;;2.92;;
13985;SDS011;7067;51.832;8.296;2022-10-16T06:13:03;4.43;;;2.65;;
13985;SDS011;7067;51.832;8.296;2022-10-16T06:15:29;5.95;;;3.20;;
13985;SDS011;7067;51.832;8.296;2022-10-16T06:17:54;3.25;;;2.22;;
13985;SDS011;7067;51.832;8.296;2022-10-16T06:20:19;3.80;;;2.05;;
13985;SDS011;7067;51.832;8.296;2022-10-16T06:22:44;5.10;;;2.63;;
13985;SDS011;7067;51.832;8.296;2022-10-16T06:25:10;5.40;;;2.63;;
13985;SDS011;7067;51.832;8.296;2022-10-16T06:27:35;4.57;;;2.83;;
13985;SDS011;7067;51.832;8.296;2022-10-16T06:30:00;5.07;;;2.53;;
13985;SDS011;7067;51.832;8.296;2022-10-16T06:32:26;2.70;;;2.30;;
13985;SDS011;7067;51.832;8.296;2022-10-16T06:34:52;5.35;;;1.95;;
13985;SDS011;7067;51.832;8.296;2022-10-16T06:37:17;4.68;;;2.30;;
13985;SDS011;7067;51.832;8.296;2022-10-16T06:39:43;5.40;;;2.40;;
13985;SDS011;7067;51.832;8.296;2022-10-16T06:42:08;2.65;;;2.22;;
13985;SDS011;7067;51.832;8.296;2022-10-16T06:44:33;9.68;;;2.85;;
13985;SDS011;7067;51.832;8.296;2022-10-16T06:46:59;2.55;;;1.83;;
13985;SDS011;7067;51.832;8.296;2022-10-16T06:49:24;4.45;;;2.03;;
13985;SDS011;7067;51.832;8.296;2022-10-16T06:51:49;2.20;;;1.95;;
13985;SDS011;7067;51.832;8.296;2022-10-16T06:54:15;2.53;;;1.92;;
13985;SDS011;7067;51.832;8.296;2022-10-16T06:56:40;3.95;;;2.15;;
13985;SDS011;7067;51.832;8.296;2022-10-16T06:59:05;2.03;;;1.55;;
13985;SDS011;7067;51.832;8.296;2022-10-16T07:01:31;1.80;;;1.40;;
13985;SDS011;7067;51.832;8.296;2022-10-16T07:03:57;5.70;;;2.05;;
13985;SDS011;7067;51.832;8.296;2022-10-16T07:06:23;1.90;;;1.70;;
13985;SDS011;7067;51.832;8.296;2022-10-16T07:08:49;4.40;;;1.50;;
13985;SDS011;7067;51.832;8.296;2022-10-16T07:11:15;2.03;;;1.50;;
13985;SDS011;7067;51.832;8.296;2022-10-16T07:13:42;1.70;;;1.60;;
13985;SDS011;7067;51.832;8.296;2022-10-16T07:16:15;4.13;;;1.65;;
13985;SDS011;7067;51.832;8.296;2022-10-16T07:18:43;2.28;;;1.10;;
13985;SDS011;7067;51.832;8.296;2022-10-16T07:21:11;2.40;;;1.60;;
13985;SDS011;7067;51.832;8.296;2022-10-16T07:23:37;1.40;;;1.30;;
13985;SDS011;7067;51.832;8.296;2022-10-16T07:26:03;1.58;;;1.48;;
13985;SDS011;7067;51.832;8.296;2022-10-16T07:28:29;4.32;;;1.25;;
13985;SDS011;7067;51.832;8.296;2022-10-16T07:30:55;4.00;;;1.60;;
13985;SDS011;7067;51.832;8.296;2022-10-16T07:33:26;3.75;;;1.30;;
13985;SDS011;7067;51.832;8.296;2022-10-16T07:35:51;1.85;;;1.52;;
13985;SDS011;7067;51.832;8.296;2022-10-16T07:38:18;3.78;;;1.20;;
13985;SDS011;7067;51.832;8.296;2022-10-16T07:40:43;4.15;;;1.30;;
13985;SDS011;7067;51.832;8.296;2022-10-16T07:43:09;1.75;;;1.20;;
13985;SDS011;7067;51.832;8.296;2022-10-16T07:45:34;1.90;;;1.05;;
13985;SDS011;7067;51.832;8.296;2022-10-16T07:47:59;1.33;;;0.98;;
13985;SDS011;7067;51.832;8.296;2022-10-16T07:50:24;1.25;;;1.05;;
13985;SDS011;7067;51.832;8.296;2022-10-16T07:52:50;2.15;;;0.98;;
13985;SDS011;7067;51.832;8.296;2022-10-16T07:55:15;1.20;;;1.10;;
13985;SDS011;7067;51.832;8.296;2022-10-16T07:57:40;1.25;;;0.85;;
13985;SDS011;7067;51.832;8.296;2022-10-16T08:00:06;1.00;;;0.90;;
13985;SDS011;7067;51.832;8.296;2022-10-16T08:02:32;1.00;;;0.90;;
13985;SDS011;7067;51.832;8.296;2022-10-16T08:04:57;3.70;;;1.00;;
13985;SDS011;7067;51.832;8.296;2022-10-16T08:07:22;1.58;;;1.35;;
13985;SDS011;7067;51.832;8.296;2022-10-16T08:09:50;3.05;;;0.90;;
13985;SDS011;7067;51.832;8.296;2022-10-16T08:12:16;1.23;;;1.05;;
13985;SDS011;7067;51.832;8.296;2022-10-16T08:14:42;4.53;;;1.40;;
13985;SDS011;7067;51.832;8.296;2022-10-16T08:17:07;1.73;;;1.60;;
13985;SDS011;7067;51.832;8.296;2022-10-16T08:19:33;5.93;;;1.23;;
13985;SDS011;7067;51.832;8.296;2022-10-16T08:21:59;1.70;;;1.08;;
13985;SDS011;7067;51.832;8.296;2022-10-16T08:24:25;1.67;;;1.50;;
13985;SDS011;7067;51.832;8.296;2022-10-16T08:26:53;2.85;;;1.88;;
13985;SDS011;7067;51.832;8.296;2022-10-16T08:29:18;1.73;;;0.90;;
13985;SDS011;7067;51.832;8.296;2022-10-16T08:31:44;1.98;;;1.23;;
13985;SDS011;7067;51.832;8.296;2022-10-16T08:34:09;2.47;;;1.00;;
13985;SDS011;7067;51.832;8.296;2022-10-16T08:36:34;1.05;;;0.88;;
13985;SDS011;7067;51.832;8.296;2022-10-16T08:38:59;2.63;;;1.08;;
13985;SDS011;7067;51.832;8.296;2022-10-16T08:50:14;1.10;;;1.02;;
13985;SDS011;7067;51.832;8.296;2022-10-16T08:52:44;2.25;;;1.08;;
13985;SDS011;7067;51.832;8.296;2022-10-16T08:55:29;2.55;;;0.82;;
13985;SDS011;7067;51.832;8.296;2022-10-16T08:57:57;1.52;;;1.20;;
13985;SDS011;7067;51.832;8.296;2022-10-16T09:00:23;1.50;;;1.40;;
13985;SDS011;7067;51.832;8.296;2022-10-16T09:02:51;1.30;;;0.77;;
13985;SDS011;7067;51.832;8.296;2022-10-16T09:05:29;3.17;;;1.10;;
13985;SDS011;7067;51.832;8.296;2022-10-16T09:08:22;1.75;;;0.63;;
13985;SDS011;7067;51.832;8.296;2022-10-16T09:13:43;3.13;;;1.00;;
13985;SDS011;7067;51.832;8.296;2022-10-16T09:21:21;2.45;;;0.80;;
13985;SDS011;7067;51.832;8.296;2022-10-16T09:23:49;0.95;;;0.60;;
13985;SDS011;7067;51.832;8.296;2022-10-16T09:26:15;1.05;;;0.82;;
13985;SDS011;7067;51.832;8.296;2022-10-16T09:28:41;2.78;;;0.95;;
13985;SDS011;7067;51.832;8.296;2022-10-16T09:31:15;3.85;;;0.90;;
13985;SDS011;7067;51.832;8.296;2022-10-16T09:33:41;2.20;;;0.80;;
13985;SDS011;7067;51.832;8.296;2022-10-16T09:36:08;4.05;;;1.27;;
13985;SDS011;7067;51.832;8.296;2022-10-16T09:38:35;1.98;;;0.57;;
13985;SDS011;7067;51.832;8.296;2022-10-16T09:41:02;1.05;;;0.40;;
13985;SDS011;7067;51.832;8.296;2022-10-16T09:43:33;2.20;;;0.88;;
13985;SDS011;7067;51.832;8.296;2022-10-16T09:46:04;7.32;;;0.70;;
13985;SDS011;7067;51.832;8.296;2022-10-16T09:48:33;2.83;;;0.70;;
13985;SDS011;7067;51.832;8.296;2022-10-16T09:51:05;1.95;;;0.45;;
13985;SDS011;7067;51.832;8.296;2022-10-16T09:53:44;3.92;;;0.80;;
13985;SDS011;7067;51.832;8.296;2022-10-16T09:56:11;0.82;;;0.60;;
13985;SDS011;7067;51.832;8.296;2022-10-16T09:58:49;2.65;;;0.73;;
13985;SDS011;7067;51.832;8.296;2022-10-16T10:01:16;2.53;;;0.47;;
13985;SDS011;7067;51.832;8.296;2022-10-16T10:03:42;0.85;;;0.40;;
13985;SDS011;7067;51.832;8.296;2022-10-16T10:06:16;2.47;;;0.40;;
13985;SDS011;7067;51.832;8.296;2022-10-16T10:08:53;3.72;;;0.60;;
13985;SDS011;7067;51.832;8.296;2022-10-16T10:11:35;2.63;;;1.10;;
13985;SDS011;7067;51.832;8.296;2022-10-16T10:14:05;1.63;;;0.90;;
13985;SDS011;7067;51.832;8.296;2022-10-16T10:16:31;2.35;;;0.70;;
13985;SDS011;7067;51.832;8.296;2022-10-16T10:19:00;3.35;;;0.95;;
13985;SDS011;7067;51.832;8.296;2022-10-16T10:21:25;3.92;;;1.75;;
13985;SDS011;7067;51.832;8.296;2022-10-16T10:23:57;4.25;;;1.40;;
13985;SDS011;7067;51.832;8.296;2022-10-16T10:26:24;1.50;;;0.70;;
13985;SDS011;7067;51.832;8.296;2022-10-16T10:32:35;3.70;;;1.00;;
13985;SDS011;7067;51.832;8.296;2022-10-16T10:35:07;2.60;;;1.20;;
13985;SDS011;7067;51.832;8.296;2022-10-16T10:40:27;1.40;;;0.60;;
13985;SDS011;7067;51.832;8.296;2022-10-16T10:42:57;2.15;;;0.90;;
13985;SDS011;7067;51.832;8.296;2022-10-16T10:45:27;2.97;;;1.38;;
13985;SDS011;7067;51.832;8.296;2022-10-16T10:47:59;4.78;;;1.13;;
13985;SDS011;7067;51.832;8.296;2022-10-16T10:50:43;3.45;;;0.60;;
13985;SDS011;7067;51.832;8.296;2022-10-16T10:59:01;0.88;;;0.40;;
13985;SDS011;7067;51.832;8.296;2022-10-16T11:01:41;1.63;;;0.70;;
13985;SDS011;7067;51.832;8.296;2022-10-16T11:07:17;1.38;;;0.30;;
13985;SDS011;7067;51.832;8.296;2022-10-16T11:09:53;4.10;;;0.60;;
13985;SDS011;7067;51.832;8.296;2022-10-16T11:12:26;1.13;;;0.40;;
13985;SDS011;7067;51.832;8.296;2022-10-16T11:15:02;0.80;;;0.40;;
13985;SDS011;7067;51.832;8.296;2022-10-16T11:17:39;1.13;;;0.45;;
13985;SDS011;7067;51.832;8.296;2022-10-16T11:22:53;0.85;;;0.32;;
13985;SDS011;7067;51.832;8.296;2022-10-16T11:28:10;1.55;;;0.32;;
13985;SDS011;7067;51.832;8.296;2022-10-16T11:30:52;1.42;;;0.47;;
13985;SDS011;7067;51.832;8.296;2022-10-16T11:33:23;0.47;;;0.25;;
13985;SDS011;7067;51.832;8.296;2022-10-16T11:36:17;2.72;;;0.28;;
13985;SDS011;7067;51.832;8.296;2022-10-16T11:41:33;2.65;;;0.60;;
13985;SDS011;7067;51.832;8.296;2022-10-16T11:46:51;1.23;;;0.38;;
13985;SDS011;7067;51.832;8.296;2022-10-16T11:49:24;1.55;;;0.55;;
13985;SDS011;7067;51.832;8.296;2022-10-16T11:51:56;1.00;;;0.43;;
13985;SDS011;7067;51.832;8.296;2022-10-16T11:57:05;0.85;;;0.25;;
13985;SDS011;7067;51.832;8.296;2022-10-16T11:59:38;5.63;;;0.30;;
13985;SDS011;7067;51.832;8.296;2022-10-16T12:05:06;2.67;;;0.50;;
13985;SDS011;7067;51.832;8.296;2022-10-16T12:08:18;2.45;;;0.50;;
13985;SDS011;7067;51.832;8.296;2022-10-16T12:10:38;0.95;;;0.40;;
13985;SDS011;7067;51.832;8.296;2022-10-16T12:13:05;1.92;;;0.60;;
13985;SDS011;7067;51.832;8.296;2022-10-16T12:15:50;0.80;;;0.30;;
13985;SDS011;7067;51.832;8.296;2022-10-16T12:18:22;1.95;;;0.40;;
13985;SDS011;7067;51.832;8.296;2022-10-16T12:20:55;2.67;;;1.20;;
13985;SDS011;7067;51.832;8.296;2022-10-16T12:23:29;1.45;;;0.63;;
13985;SDS011;7067;51.832;8.296;2022-10-16T12:25:55;1.60;;;0.60;;
13985;SDS011;7067;51.832;8.296;2022-10-16T12:28:26;1.42;;;0.47;;
13985;SDS011;7067;51.832;8.296;2022-10-16T12:30:59;1.10;;;0.40;;
13985;SDS011;7067;51.832;8.296;2022-10-16T12:33:27;1.15;;;0.45;;
13985;SDS011;7067;51.832;8.296;2022-10-16T12:36:16;2.15;;;0.60;;
13985;SDS011;7067;51.832;8.296;2022-10-16T12:38:55;1.27;;;0.32;;
13985;SDS011;7067;51.832;8.296;2022-10-16T12:41:34;1.08;;;0.60;;
13985;SDS011;7067;51.832;8.296;2022-10-16T12:44:01;2.22;;;0.60;;
13985;SDS011;7067;51.832;8.296;2022-10-16T12:49:19;1.00;;;0.38;;
13985;SDS011;7067;51.832;8.296;2022-10-16T12:51:47;2.15;;;0.55;;
13985;SDS011;7067;51.832;8.296;2022-10-16T12:54:13;1.75;;;0.40;;
13985;SDS011;7067;51.832;8.296;2022-10-16T13:10:36;2.13;;;0.38;;
13985;SDS011;7067;51.832;8.296;2022-10-16T13:28:04;1.02;;;0.20;;
13985;SDS011;7067;51.832;8.296;2022-10-16T13:30:39;2.70;;;0.30;;
13985;SDS011;7067;51.832;8.296;2022-10-16T13:33:25;3.67;;;0.55;;
13985;SDS011;7067;51.832;8.296;2022-10-16T13:35:56;1.15;;;0.35;;
13985;SDS011;7067;51.832;8.296;2022-10-16T13:38:24;2.38;;;0.40;;
13985;SDS011;7067;51.832;8.296;2022-10-16T13:40:53;1.25;;;0.30;;
13985;SDS011;7067;51.832;8.296;2022-10-16T13:43:24;1.20;;;0.45;;
13985;SDS011;7067;51.832;8.296;2022-10-16T13:45:54;0.40;;;0.22;;
13985;SDS011;7067;51.832;8.296;2022-10-16T13:48:31;0.90;;;0.20;;
13985;SDS011;7067;51.832;8.296;2022-10-16T13:51:00;2.13;;;0.40;;
13985;SDS011;7067;51.832;8.296;2022-10-16T13:53:27;0.60;;;0.40;;
13985;SDS011;7067;51.832;8.296;2022-10-16T13:55:55;1.55;;;0.40;;
13985;SDS011;7067;51.832;8.296;2022-10-16T13:58:21;1.33;;;0.40;;
13985;SDS011;7067;51.832;8.296;2022-10-16T14:01:11;2.15;;;0.30;;
13985;SDS011;7067;51.832;8.296;2022-10-16T14:03:44;2.65;;;0.50;;
13985;SDS011;7067;51.832;8.296;2022-10-16T14:06:12;6.47;;;0.38;;
13985;SDS011;7067;51.832;8.296;2022-10-16T14:11:07;2.20;;;0.70;;
13985;SDS011;7067;51.832;8.296;2022-10-16T14:14:05;1.13;;;0.22;;
13985;SDS011;7067;51.832;8.296;2022-10-16T14:16:27;1.90;;;0.30;;
13985;SDS011;7067;51.832;8.296;2022-10-16T14:19:04;1.20;;;0.40;;
13985;SDS011;7067;51.832;8.296;2022-10-16T14:21:31;4.18;;;0.50;;
13985;SDS011;7067;51.832;8.296;2022-10-16T14:23:57;1.50;;;0.32;;
13985;SDS011;7067;51.832;8.296;2022-10-16T14:26:24;2.00;;;0.35;;
13985;SDS011;7067;51.832;8.296;2022-10-16T14:29:02;0.68;;;0.40;;
13985;SDS011;7067;51.832;8.296;2022-10-16T14:31:33;2.30;;;0.55;;
13985;SDS011;7067;51.832;8.296;2022-10-16T14:34:01;2.42;;;0.63;;
13985;SDS011;7067;51.832;8.296;2022-10-16T14:36:27;1.75;;;0.38;;
13985;SDS011;7067;51.832;8.296;2022-10-16T14:41:25;0.93;;;0.30;;
13985;SDS011;7067;51.832;8.296;2022-10-16T14:43:52;1.17;;;0.70;;
13985;SDS011;7067;51.832;8.296;2022-10-16T14:46:20;3.75;;;0.82;;
13985;SDS011;7067;51.832;8.296;2022-10-16T14:48:59;1.77;;;0.85;;
13985;SDS011;7067;51.832;8.296;2022-10-16T14:51:27;6.82;;;3.17;;
13985;SDS011;7067;51.832;8.296;2022-10-16T14:53:52;6.20;;;3.28;;
13985;SDS011;7067;51.832;8.296;2022-10-16T14:56:19;2.42;;;0.70;;
13985;SDS011;7067;51.832;8.296;2022-10-16T14:58:49;2.70;;;0.88;;
13985;SDS011;7067;51.832;8.296;2022-10-16T15:01:15;0.63;;;0.40;;
13985;SDS011;7067;51.832;8.296;2022-10-16T15:03:40;1.15;;;0.30;;
13985;SDS011;7067;51.832;8.296;2022-10-16T15:06:12;2.10;;;0.30;;
13985;SDS011;7067;51.832;8.296;2022-10-16T15:08:39;1.85;;;0.70;;
13985;SDS011;7067;51.832;8.296;2022-10-16T15:11:05;2.92;;;1.30;;
13985;SDS011;7067;51.832;8.296;2022-10-16T15:16:00;1.30;;;0.75;;
13985;SDS011;7067;51.832;8.296;2022-10-16T15:18:25;4.68;;;0.50;;
13985;SDS011;7067;51.832;8.296;2022-10-16T15:20:51;1.23;;;0.60;;
13985;SDS011;7067;51.832;8.296;2022-10-16T15:23:20;1.55;;;0.60;;
13985;SDS011;7067;51.832;8.296;2022-10-16T15:28:13;3.72;;;0.45;;
13985;SDS011;7067;51.832;8.296;2022-10-16T15:30:39;1.33;;;0.30;;
13985;SDS011;7067;51.832;8.296;2022-10-16T15:33:09;1.65;;;0.30;;
13985;SDS011;7067;51.832;8.296;2022-10-16T15:35:38;3.13;;;0.38;;
13985;SDS011;7067;51.832;8.296;2022-10-16T15:38:03;2.28;;;0.50;;
13985;SDS011;7067;51.832;8.296;2022-10-16T15:40:28;3.72;;;0.40;;
13985;SDS011;7067;51.832;8.296;2022-10-16T15:42:54;2.00;;;0.50;;
13985;SDS011;7067;51.832;8.296;2022-10-16T15:45:19;0.35;;;0.30;;
13985;SDS011;7067;51.832;8.296;2022-10-16T15:47:45;2.03;;;0.50;;
13985;SDS011;7067;51.832;8.296;2022-10-16T15:50:11;1.45;;;0.50;;
13985;SDS011;7067;51.832;8.296;2022-10-16T15:52:38;1.85;;;0.45;;
13985;SDS011;7067;51.832;8.296;2022-10-16T15:55:04;1.13;;;0.98;;
13985;SDS011;7067;51.832;8.296;2022-10-16T15:57:31;1.73;;;0.70;;
13985;SDS011;7067;51.832;8.296;2022-10-16T15:59:56;3.78;;;0.70;;
13985;SDS011;7067;51.832;8.296;2022-10-16T16:02:22;1.30;;;0.65;;
13985;SDS011;7067;51.832;8.296;2022-10-16T16:04:47;4.88;;;1.15;;
13985;SDS011;7067;51.832;8.296;2022-10-16T16:07:12;1.33;;;1.23;;
13985;SDS011;7067;51.832;8.296;2022-10-16T16:09:38;3.90;;;1.17;;
13985;SDS011;7067;51.832;8.296;2022-10-16T16:12:03;2.28;;;1.00;;
13985;SDS011;7067;51.832;8.296;2022-10-16T16:14:28;2.97;;;1.10;;
13985;SDS011;7067;51.832;8.296;2022-10-16T16:16:54;5.85;;;1.13;;
13985;SDS011;7067;51.832;8.296;2022-10-16T16:19:20;1.38;;;0.70;;
13985;SDS011;7067;51.832;8.296;2022-10-16T16:21:46;5.57;;;1.75;;
13985;SDS011;7067;51.832;8.296;2022-10-16T16:24:12;1.80;;;0.80;;
13985;SDS011;7067;51.832;8.296;2022-10-16T16:26:37;3.33;;;0.80;;
13985;SDS011;7067;51.832;8.296;2022-10-16T16:29:05;2.20;;;1.30;;
13985;SDS011;7067;51.832;8.296;2022-10-16T16:31:31;1.38;;;1.00;;
13985;SDS011;7067;51.832;8.296;2022-10-16T16:33:57;4.97;;;2.92;;
13985;SDS011;7067;51.832;8.296;2022-10-16T16:36:23;5.03;;;2.72;;
13985;SDS011;7067;51.832;8.296;2022-10-16T16:38:49;7.82;;;4.03;;
13985;SDS011;7067;51.832;8.296;2022-10-16T16:41:16;6.72;;;5.25;;
13985;SDS011;7067;51.832;8.296;2022-10-16T16:43:46;5.82;;;4.95;;
13985;SDS011;7067;51.832;8.296;2022-10-16T16:46:12;7.72;;;4.75;;
13985;SDS011;7067;51.832;8.296;2022-10-16T16:48:39;7.47;;;5.70;;
13985;SDS011;7067;51.832;8.296;2022-10-16T16:51:05;6.22;;;4.82;;
13985;SDS011;7067;51.832;8.296;2022-10-16T16:53:33;4.90;;;4.13;;